sensor_id;sensor_type;location;lat;lon;timestamp;P1;durP1;ratioP1;P2;durP2;ratioP2
6193;SDS011;3130;41.564;23.280;2023-07-29T00:01:56;4.57;;;3.63;;
6193;SDS011;3130;41.564;23.280;2023-07-29T00:04:23;8.00;;;4.63;;
6193;SDS011;3130;41.564;23.280;2023-07-29T00:06:51;5.07;;;4.00;;
6193;SDS011;3130;41.564;23.280;2023-07-29T00:09:18;5.40;;;4.00;;
6193;SDS011;3130;41.564;23.280;2023-07-29T00:11:45;4.00;;;3.60;;
6193;SDS011;3130;41.564;23.280;2023-07-29T00:14:12;5.20;;;3.50;;
6193;SDS011;3130;41.564;23.280;2023-07-29T00:16:39;4.73;;;4.20;;
6193;SDS011;3130;41.564;23.280;2023-07-29T00:19:08;5.03;;;4.10;;
6193;SDS011;3130;41.564;23.280;2023-07-29T00:21:35;4.07;;;3.47;;
6193;SDS011;3130;41.564;23.280;2023-07-29T00:24:02;5.27;;;3.70;;
6193;SDS011;3130;41.564;23.280;2023-07-29T00:26:30;7.23;;;4.37;;
6193;SDS011;3130;41.564;23.280;2023-07-29T00:28:58;10.40;;;4.47;;
6193;SDS011;3130;41.564;23.280;2023-07-29T00:31:25;4.70;;;3.80;;
6193;SDS011;3130;41.564;23.280;2023-07-29T00:33:52;4.40;;;3.90;;
6193;SDS011;3130;41.564;23.280;2023-07-29T00:36:21;4.77;;;4.27;;
6193;SDS011;3130;41.564;23.280;2023-07-29T00:38:49;7.03;;;3.80;;
6193;SDS011;3130;41.564;23.280;2023-07-29T00:41:18;7.13;;;4.00;;
6193;SDS011;3130;41.564;23.280;2023-07-29T00:43:46;3.87;;;3.43;;
6193;SDS011;3130;41.564;23.280;2023-07-29T00:46:13;5.33;;;4.27;;
6193;SDS011;3130;41.564;23.280;2023-07-29T00:48:40;5.23;;;4.13;;
6193;SDS011;3130;41.564;23.280;2023-07-29T00:51:07;5.23;;;4.23;;
6193;SDS011;3130;41.564;23.280;2023-07-29T00:53:37;4.83;;;4.33;;
6193;SDS011;3130;41.564;23.280;2023-07-29T00:56:04;7.10;;;3.87;;
6193;SDS011;3130;41.564;23.280;2023-07-29T00:58:31;4.77;;;4.27;;
6193;SDS011;3130;41.564;23.280;2023-07-29T01:00:58;4.07;;;3.63;;
6193;SDS011;3130;41.564;23.280;2023-07-29T01:03:26;5.30;;;4.60;;
6193;SDS011;3130;41.564;23.280;2023-07-29T01:05:57;4.97;;;4.27;;
6193;SDS011;3130;41.564;23.280;2023-07-29T01:08:35;4.93;;;3.77;;
6193;SDS011;3130;41.564;23.280;2023-07-29T01:11:17;4.43;;;4.00;;
6193;SDS011;3130;41.564;23.280;2023-07-29T01:13:53;4.23;;;3.73;;
6193;SDS011;3130;41.564;23.280;2023-07-29T01:16:26;5.23;;;4.30;;
6193;SDS011;3130;41.564;23.280;2023-07-29T01:18:58;5.07;;;4.23;;
6193;SDS011;3130;41.564;23.280;2023-07-29T01:21:32;4.97;;;3.93;;
6193;SDS011;3130;41.564;23.280;2023-07-29T01:24:03;4.73;;;4.20;;
6193;SDS011;3130;41.564;23.280;2023-07-29T01:26:30;4.83;;;3.83;;
6193;SDS011;3130;41.564;23.280;2023-07-29T01:28:58;4.33;;;3.93;;
6193;SDS011;3130;41.564;23.280;2023-07-29T01:31:27;4.60;;;4.20;;
6193;SDS011;3130;41.564;23.280;2023-07-29T01:34:02;6.93;;;4.43;;
6193;SDS011;3130;41.564;23.280;2023-07-29T01:36:35;5.53;;;4.50;;
6193;SDS011;3130;41.564;23.280;2023-07-29T01:39:07;4.93;;;4.10;;
6193;SDS011;3130;41.564;23.280;2023-07-29T01:41:36;5.17;;;3.83;;
6193;SDS011;3130;41.564;23.280;2023-07-29T01:44:04;5.13;;;4.63;;
6193;SDS011;3130;41.564;23.280;2023-07-29T01:46:33;7.07;;;3.90;;
6193;SDS011;3130;41.564;23.280;2023-07-29T01:49:00;5.73;;;4.60;;
6193;SDS011;3130;41.564;23.280;2023-07-29T01:51:28;5.17;;;4.33;;
6193;SDS011;3130;41.564;23.280;2023-07-29T01:53:55;5.30;;;4.10;;
6193;SDS011;3130;41.564;23.280;2023-07-29T01:56:25;4.77;;;4.07;;
6193;SDS011;3130;41.564;23.280;2023-07-29T01:58:52;4.50;;;4.10;;
6193;SDS011;3130;41.564;23.280;2023-07-29T02:01:19;5.40;;;3.60;;
6193;SDS011;3130;41.564;23.280;2023-07-29T02:03:46;4.50;;;4.03;;
6193;SDS011;3130;41.564;23.280;2023-07-29T02:06:18;4.40;;;3.30;;
6193;SDS011;3130;41.564;23.280;2023-07-29T02:08:45;5.27;;;4.07;;
6193;SDS011;3130;41.564;23.280;2023-07-29T02:11:12;5.80;;;4.00;;
6193;SDS011;3130;41.564;23.280;2023-07-29T02:13:40;3.90;;;3.50;;
6193;SDS011;3130;41.564;23.280;2023-07-29T02:16:07;4.63;;;4.00;;
6193;SDS011;3130;41.564;23.280;2023-07-29T02:18:35;3.90;;;3.27;;
6193;SDS011;3130;41.564;23.280;2023-07-29T02:21:02;4.60;;;3.70;;
6193;SDS011;3130;41.564;23.280;2023-07-29T02:23:29;5.90;;;3.97;;
6193;SDS011;3130;41.564;23.280;2023-07-29T02:25:56;4.47;;;3.53;;
6193;SDS011;3130;41.564;23.280;2023-07-29T02:28:23;4.80;;;3.70;;
6193;SDS011;3130;41.564;23.280;2023-07-29T02:31:08;4.70;;;4.23;;
6193;SDS011;3130;41.564;23.280;2023-07-29T02:33:37;4.83;;;4.33;;
6193;SDS011;3130;41.564;23.280;2023-07-29T02:36:04;4.80;;;3.97;;
6193;SDS011;3130;41.564;23.280;2023-07-29T02:38:31;4.50;;;3.63;;
6193;SDS011;3130;41.564;23.280;2023-07-29T02:40:58;4.37;;;3.87;;
6193;SDS011;3130;41.564;23.280;2023-07-29T02:43:25;5.00;;;4.33;;
6193;SDS011;3130;41.564;23.280;2023-07-29T02:45:52;5.27;;;3.93;;
6193;SDS011;3130;41.564;23.280;2023-07-29T02:48:20;5.00;;;4.47;;
6193;SDS011;3130;41.564;23.280;2023-07-29T02:50:47;5.60;;;4.17;;
6193;SDS011;3130;41.564;23.280;2023-07-29T02:53:14;5.33;;;3.70;;
6193;SDS011;3130;41.564;23.280;2023-07-29T02:55:41;5.00;;;4.30;;
6193;SDS011;3130;41.564;23.280;2023-07-29T02:58:09;6.23;;;4.80;;
6193;SDS011;3130;41.564;23.280;2023-07-29T03:00:36;4.17;;;3.67;;
6193;SDS011;3130;41.564;23.280;2023-07-29T03:03:03;5.00;;;4.50;;
6193;SDS011;3130;41.564;23.280;2023-07-29T03:05:32;4.50;;;4.10;;
6193;SDS011;3130;41.564;23.280;2023-07-29T03:07:59;4.50;;;3.90;;
6193;SDS011;3130;41.564;23.280;2023-07-29T03:10:26;5.33;;;4.40;;
6193;SDS011;3130;41.564;23.280;2023-07-29T03:12:53;4.00;;;3.53;;
6193;SDS011;3130;41.564;23.280;2023-07-29T03:15:23;4.77;;;4.27;;
6193;SDS011;3130;41.564;23.280;2023-07-29T03:17:50;4.30;;;3.63;;
6193;SDS011;3130;41.564;23.280;2023-07-29T03:20:17;4.83;;;3.63;;
6193;SDS011;3130;41.564;23.280;2023-07-29T03:22:46;5.40;;;4.27;;
6193;SDS011;3130;41.564;23.280;2023-07-29T03:25:13;5.50;;;3.87;;
6193;SDS011;3130;41.564;23.280;2023-07-29T03:27:40;5.00;;;4.00;;
6193;SDS011;3130;41.564;23.280;2023-07-29T03:30:07;5.77;;;4.33;;
6193;SDS011;3130;41.564;23.280;2023-07-29T03:32:35;7.80;;;4.13;;
6193;SDS011;3130;41.564;23.280;2023-07-29T03:35:02;5.20;;;3.90;;
6193;SDS011;3130;41.564;23.280;2023-07-29T03:37:29;4.37;;;3.93;;
6193;SDS011;3130;41.564;23.280;2023-07-29T03:39:58;4.23;;;3.77;;
6193;SDS011;3130;41.564;23.280;2023-07-29T03:42:25;4.67;;;4.00;;
6193;SDS011;3130;41.564;23.280;2023-07-29T03:44:52;5.47;;;4.13;;
6193;SDS011;3130;41.564;23.280;2023-07-29T03:47:19;5.83;;;4.30;;
6193;SDS011;3130;41.564;23.280;2023-07-29T03:49:47;4.60;;;3.97;;
6193;SDS011;3130;41.564;23.280;2023-07-29T03:52:14;9.17;;;4.50;;
6193;SDS011;3130;41.564;23.280;2023-07-29T03:54:41;5.83;;;3.97;;
6193;SDS011;3130;41.564;23.280;2023-07-29T03:57:10;5.23;;;4.20;;
6193;SDS011;3130;41.564;23.280;2023-07-29T03:59:37;4.70;;;3.90;;
6193;SDS011;3130;41.564;23.280;2023-07-29T04:02:04;4.33;;;3.93;;
6193;SDS011;3130;41.564;23.280;2023-07-29T04:04:31;4.53;;;4.00;;
6193;SDS011;3130;41.564;23.280;2023-07-29T04:06:58;5.33;;;3.90;;
6193;SDS011;3130;41.564;23.280;2023-07-29T04:09:26;5.77;;;4.43;;
6193;SDS011;3130;41.564;23.280;2023-07-29T04:11:53;4.60;;;3.77;;
6193;SDS011;3130;41.564;23.280;2023-07-29T04:14:22;7.03;;;4.13;;
6193;SDS011;3130;41.564;23.280;2023-07-29T04:16:49;5.97;;;4.20;;
6193;SDS011;3130;41.564;23.280;2023-07-29T04:19:16;4.13;;;3.73;;
6193;SDS011;3130;41.564;23.280;2023-07-29T04:21:43;5.17;;;3.77;;
6193;SDS011;3130;41.564;23.280;2023-07-29T04:24:11;5.50;;;4.40;;
6193;SDS011;3130;41.564;23.280;2023-07-29T04:26:38;5.07;;;4.33;;
6193;SDS011;3130;41.564;23.280;2023-07-29T04:29:05;5.00;;;4.00;;
6193;SDS011;3130;41.564;23.280;2023-07-29T04:31:34;4.50;;;3.57;;
6193;SDS011;3130;41.564;23.280;2023-07-29T04:34:01;4.13;;;3.73;;
6193;SDS011;3130;41.564;23.280;2023-07-29T04:36:29;5.37;;;3.60;;
6193;SDS011;3130;41.564;23.280;2023-07-29T04:38:56;6.03;;;3.97;;
6193;SDS011;3130;41.564;23.280;2023-07-29T04:41:23;4.57;;;3.80;;
6193;SDS011;3130;41.564;23.280;2023-07-29T04:43:50;6.83;;;4.23;;
6193;SDS011;3130;41.564;23.280;2023-07-29T04:46:18;8.60;;;4.47;;
6193;SDS011;3130;41.564;23.280;2023-07-29T04:48:46;5.87;;;3.63;;
6193;SDS011;3130;41.564;23.280;2023-07-29T04:51:13;5.07;;;4.17;;
6193;SDS011;3130;41.564;23.280;2023-07-29T04:53:40;4.73;;;4.20;;
6193;SDS011;3130;41.564;23.280;2023-07-29T04:56:07;5.07;;;3.87;;
6193;SDS011;3130;41.564;23.280;2023-07-29T05:02:23;9.80;;;4.33;;
6193;SDS011;3130;41.564;23.280;2023-07-29T05:04:50;4.97;;;4.47;;
6193;SDS011;3130;41.564;23.280;2023-07-29T05:07:17;6.73;;;4.53;;
6193;SDS011;3130;41.564;23.280;2023-07-29T05:09:45;4.73;;;4.33;;
6193;SDS011;3130;41.564;23.280;2023-07-29T05:12:12;10.63;;;5.43;;
6193;SDS011;3130;41.564;23.280;2023-07-29T05:14:39;6.47;;;4.73;;
6193;SDS011;3130;41.564;23.280;2023-07-29T05:17:06;6.77;;;5.40;;
6193;SDS011;3130;41.564;23.280;2023-07-29T05:19:34;6.63;;;5.93;;
6193;SDS011;3130;41.564;23.280;2023-07-29T05:22:01;7.67;;;5.47;;
6193;SDS011;3130;41.564;23.280;2023-07-29T05:24:28;6.63;;;5.90;;
6193;SDS011;3130;41.564;23.280;2023-07-29T05:26:55;8.93;;;6.00;;
6193;SDS011;3130;41.564;23.280;2023-07-29T05:29:22;8.83;;;6.43;;
6193;SDS011;3130;41.564;23.280;2023-07-29T05:31:49;8.37;;;6.73;;
6193;SDS011;3130;41.564;23.280;2023-07-29T05:34:16;9.07;;;7.00;;
6193;SDS011;3130;41.564;23.280;2023-07-29T05:36:45;7.40;;;6.03;;
6193;SDS011;3130;41.564;23.280;2023-07-29T05:39:12;10.37;;;6.37;;
6193;SDS011;3130;41.564;23.280;2023-07-29T05:41:39;10.63;;;6.53;;
6193;SDS011;3130;41.564;23.280;2023-07-29T05:44:06;10.13;;;6.80;;
6193;SDS011;3130;41.564;23.280;2023-07-29T05:46:33;11.33;;;7.10;;
6193;SDS011;3130;41.564;23.280;2023-07-29T05:49:01;11.33;;;7.07;;
6193;SDS011;3130;41.564;23.280;2023-07-29T05:51:28;8.73;;;6.37;;
6193;SDS011;3130;41.564;23.280;2023-07-29T05:53:58;8.30;;;5.93;;
6193;SDS011;3130;41.564;23.280;2023-07-29T05:56:25;8.97;;;5.90;;
6193;SDS011;3130;41.564;23.280;2023-07-29T05:58:52;6.87;;;5.43;;
6193;SDS011;3130;41.564;23.280;2023-07-29T06:01:19;7.53;;;5.60;;
6193;SDS011;3130;41.564;23.280;2023-07-29T06:03:47;10.87;;;6.00;;
6193;SDS011;3130;41.564;23.280;2023-07-29T06:06:15;6.20;;;5.47;;
6193;SDS011;3130;41.564;23.280;2023-07-29T06:08:42;10.10;;;6.23;;
6193;SDS011;3130;41.564;23.280;2023-07-29T06:11:11;7.57;;;5.37;;
6193;SDS011;3130;41.564;23.280;2023-07-29T06:13:38;7.00;;;5.37;;
6193;SDS011;3130;41.564;23.280;2023-07-29T06:16:05;6.33;;;5.20;;
6193;SDS011;3130;41.564;23.280;2023-07-29T06:18:33;5.73;;;4.63;;
6193;SDS011;3130;41.564;23.280;2023-07-29T06:21:00;5.80;;;5.20;;
6193;SDS011;3130;41.564;23.280;2023-07-29T06:23:27;10.53;;;5.90;;
6193;SDS011;3130;41.564;23.280;2023-07-29T06:25:54;4.70;;;4.20;;
6193;SDS011;3130;41.564;23.280;2023-07-29T06:28:23;6.03;;;4.70;;
6193;SDS011;3130;41.564;23.280;2023-07-29T06:30:50;10.93;;;4.97;;
6193;SDS011;3130;41.564;23.280;2023-07-29T06:33:18;5.73;;;4.73;;
6193;SDS011;3130;41.564;23.280;2023-07-29T06:35:45;5.10;;;4.60;;
6193;SDS011;3130;41.564;23.280;2023-07-29T06:38:12;5.43;;;4.60;;
6193;SDS011;3130;41.564;23.280;2023-07-29T06:40:40;5.50;;;4.43;;
6193;SDS011;3130;41.564;23.280;2023-07-29T06:43:07;7.67;;;4.20;;
6193;SDS011;3130;41.564;23.280;2023-07-29T06:45:36;6.27;;;4.80;;
6193;SDS011;3130;41.564;23.280;2023-07-29T06:48:03;5.57;;;4.87;;
6193;SDS011;3130;41.564;23.280;2023-07-29T06:50:30;5.87;;;4.50;;
6193;SDS011;3130;41.564;23.280;2023-07-29T06:52:58;10.57;;;9.57;;
6193;SDS011;3130;41.564;23.280;2023-07-29T06:55:25;6.40;;;5.03;;
6193;SDS011;3130;41.564;23.280;2023-07-29T06:57:53;5.20;;;4.67;;
6193;SDS011;3130;41.564;23.280;2023-07-29T07:00:21;4.83;;;4.30;;
6193;SDS011;3130;41.564;23.280;2023-07-29T07:02:50;6.73;;;4.83;;
6193;SDS011;3130;41.564;23.280;2023-07-29T07:05:17;5.57;;;4.47;;
6193;SDS011;3130;41.564;23.280;2023-07-29T07:07:45;5.97;;;4.80;;
6193;SDS011;3130;41.564;23.280;2023-07-29T07:10:13;5.53;;;5.03;;
6193;SDS011;3130;41.564;23.280;2023-07-29T07:12:41;6.80;;;4.93;;
6193;SDS011;3130;41.564;23.280;2023-07-29T07:15:08;5.43;;;4.70;;
6193;SDS011;3130;41.564;23.280;2023-07-29T07:17:35;8.23;;;5.20;;
6193;SDS011;3130;41.564;23.280;2023-07-29T07:20:05;7.03;;;4.77;;
6193;SDS011;3130;41.564;23.280;2023-07-29T07:22:34;5.78;;;4.38;;
6193;SDS011;3130;41.564;23.280;2023-07-29T07:25:01;5.30;;;4.40;;
6193;SDS011;3130;41.564;23.280;2023-07-29T07:27:29;5.75;;;4.68;;
6193;SDS011;3130;41.564;23.280;2023-07-29T07:29:56;5.57;;;4.82;;
6193;SDS011;3130;41.564;23.280;2023-07-29T07:32:23;5.50;;;4.90;;
6193;SDS011;3130;41.564;23.280;2023-07-29T07:34:51;6.40;;;4.72;;
6193;SDS011;3130;41.564;23.280;2023-07-29T07:37:20;6.53;;;5.45;;
6193;SDS011;3130;41.564;23.280;2023-07-29T07:39:47;4.95;;;4.45;;
6193;SDS011;3130;41.564;23.280;2023-07-29T07:42:14;7.43;;;4.80;;
6193;SDS011;3130;41.564;23.280;2023-07-29T07:44:42;5.80;;;4.00;;
6193;SDS011;3130;41.564;23.280;2023-07-29T07:47:09;5.47;;;4.50;;
6193;SDS011;3130;41.564;23.280;2023-07-29T07:49:37;5.13;;;4.63;;
6193;SDS011;3130;41.564;23.280;2023-07-29T07:52:04;6.45;;;4.95;;
6193;SDS011;3130;41.564;23.280;2023-07-29T07:54:33;5.93;;;4.57;;
6193;SDS011;3130;41.564;23.280;2023-07-29T07:57:02;5.55;;;5.00;;
6193;SDS011;3130;41.564;23.280;2023-07-29T07:59:32;6.28;;;4.57;;
6193;SDS011;3130;41.564;23.280;2023-07-29T08:02:00;4.93;;;4.40;;
6193;SDS011;3130;41.564;23.280;2023-07-29T08:04:27;5.25;;;4.75;;
6193;SDS011;3130;41.564;23.280;2023-07-29T08:06:54;5.57;;;4.80;;
6193;SDS011;3130;41.564;23.280;2023-07-29T08:09:21;5.05;;;4.50;;
6193;SDS011;3130;41.564;23.280;2023-07-29T08:11:51;6.40;;;4.85;;
6193;SDS011;3130;41.564;23.280;2023-07-29T08:14:18;5.25;;;4.75;;
6193;SDS011;3130;41.564;23.280;2023-07-29T08:16:45;5.70;;;4.43;;
6193;SDS011;3130;41.564;23.280;2023-07-29T08:19:12;4.75;;;4.22;;
6193;SDS011;3130;41.564;23.280;2023-07-29T08:21:39;6.38;;;4.43;;
6193;SDS011;3130;41.564;23.280;2023-07-29T08:24:07;7.93;;;5.50;;
6193;SDS011;3130;41.564;23.280;2023-07-29T08:26:34;5.28;;;4.22;;
6193;SDS011;3130;41.564;23.280;2023-07-29T08:29:03;7.88;;;5.00;;
6193;SDS011;3130;41.564;23.280;2023-07-29T08:31:31;5.55;;;4.78;;
6193;SDS011;3130;41.564;23.280;2023-07-29T08:33:59;7.97;;;4.90;;
6193;SDS011;3130;41.564;23.280;2023-07-29T08:36:27;5.72;;;5.20;;
6193;SDS011;3130;41.564;23.280;2023-07-29T08:38:54;6.43;;;4.18;;
6193;SDS011;3130;41.564;23.280;2023-07-29T08:41:25;5.95;;;4.13;;
6193;SDS011;3130;41.564;23.280;2023-07-29T08:43:57;4.78;;;4.28;;
6193;SDS011;3130;41.564;23.280;2023-07-29T08:46:30;6.05;;;4.45;;
6193;SDS011;3130;41.564;23.280;2023-07-29T08:48:59;5.05;;;4.30;;
6193;SDS011;3130;41.564;23.280;2023-07-29T08:51:27;5.53;;;4.63;;
6193;SDS011;3130;41.564;23.280;2023-07-29T08:53:58;6.35;;;4.47;;
6193;SDS011;3130;41.564;23.280;2023-07-29T08:56:28;5.07;;;4.47;;
6193;SDS011;3130;41.564;23.280;2023-07-29T08:58:56;5.15;;;4.35;;
6193;SDS011;3130;41.564;23.280;2023-07-29T09:01:27;6.65;;;5.00;;
6193;SDS011;3130;41.564;23.280;2023-07-29T09:03:58;4.90;;;4.43;;
6193;SDS011;3130;41.564;23.280;2023-07-29T09:06:35;5.32;;;4.25;;
6193;SDS011;3130;41.564;23.280;2023-07-29T09:09:04;4.43;;;3.75;;
6193;SDS011;3130;41.564;23.280;2023-07-29T09:11:33;5.10;;;3.85;;
6193;SDS011;3130;41.564;23.280;2023-07-29T09:14:00;5.00;;;4.15;;
6193;SDS011;3130;41.564;23.280;2023-07-29T09:16:31;4.55;;;3.97;;
6193;SDS011;3130;41.564;23.280;2023-07-29T09:19:02;7.60;;;3.70;;
6193;SDS011;3130;41.564;23.280;2023-07-29T09:21:37;8.52;;;4.35;;
6193;SDS011;3130;41.564;23.280;2023-07-29T09:24:08;5.20;;;4.50;;
6193;SDS011;3130;41.564;23.280;2023-07-29T09:26:36;5.55;;;4.22;;
6193;SDS011;3130;41.564;23.280;2023-07-29T09:29:06;4.63;;;3.78;;
6193;SDS011;3130;41.564;23.280;2023-07-29T09:31:36;5.75;;;4.38;;
6193;SDS011;3130;41.564;23.280;2023-07-29T09:34:04;5.55;;;3.60;;
6193;SDS011;3130;41.564;23.280;2023-07-29T09:36:32;4.78;;;4.15;;
6193;SDS011;3130;41.564;23.280;2023-07-29T09:39:01;4.50;;;3.88;;
6193;SDS011;3130;41.564;23.280;2023-07-29T09:41:29;4.30;;;3.63;;
6193;SDS011;3130;41.564;23.280;2023-07-29T09:43:57;3.85;;;3.40;;
6193;SDS011;3130;41.564;23.280;2023-07-29T09:46:31;5.25;;;3.85;;
6193;SDS011;3130;41.564;23.280;2023-07-29T09:49:01;4.25;;;3.78;;
6193;SDS011;3130;41.564;23.280;2023-07-29T09:51:31;5.32;;;3.42;;
6193;SDS011;3130;41.564;23.280;2023-07-29T09:53:58;3.95;;;3.55;;
6193;SDS011;3130;41.564;23.280;2023-07-29T09:56:32;3.78;;;3.42;;
6193;SDS011;3130;41.564;23.280;2023-07-29T09:58:59;3.55;;;3.25;;
6193;SDS011;3130;41.564;23.280;2023-07-29T10:01:26;4.32;;;3.47;;
6193;SDS011;3130;41.564;23.280;2023-07-29T10:03:55;5.03;;;4.22;;
6193;SDS011;3130;41.564;23.280;2023-07-29T10:06:26;5.60;;;3.80;;
6193;SDS011;3130;41.564;23.280;2023-07-29T10:08:55;6.43;;;5.45;;
6193;SDS011;3130;41.564;23.280;2023-07-29T10:11:22;4.30;;;3.75;;
6193;SDS011;3130;41.564;23.280;2023-07-29T10:13:51;6.35;;;4.20;;
6193;SDS011;3130;41.564;23.280;2023-07-29T10:16:19;5.00;;;4.45;;
6193;SDS011;3130;41.564;23.280;2023-07-29T10:18:47;6.55;;;4.90;;
6193;SDS011;3130;41.564;23.280;2023-07-29T10:21:15;4.07;;;3.65;;
6193;SDS011;3130;41.564;23.280;2023-07-29T10:23:46;4.28;;;3.88;;
6193;SDS011;3130;41.564;23.280;2023-07-29T10:26:16;5.95;;;3.80;;
6193;SDS011;3130;41.564;23.280;2023-07-29T10:28:46;4.53;;;3.58;;
6193;SDS011;3130;41.564;23.280;2023-07-29T10:31:15;3.70;;;3.40;;
6193;SDS011;3130;41.564;23.280;2023-07-29T10:33:43;3.85;;;3.33;;
6193;SDS011;3130;41.564;23.280;2023-07-29T10:36:11;3.88;;;3.50;;
6193;SDS011;3130;41.564;23.280;2023-07-29T10:38:39;4.72;;;3.47;;
6193;SDS011;3130;41.564;23.280;2023-07-29T10:41:09;4.43;;;3.70;;
6193;SDS011;3130;41.564;23.280;2023-07-29T10:43:36;4.82;;;3.40;;
6193;SDS011;3130;41.564;23.280;2023-07-29T10:46:16;3.63;;;3.33;;
6193;SDS011;3130;41.564;23.280;2023-07-29T10:48:52;3.83;;;2.97;;
6193;SDS011;3130;41.564;23.280;2023-07-29T10:51:27;3.20;;;2.83;;
6193;SDS011;3130;41.564;23.280;2023-07-29T10:53:56;4.43;;;3.38;;
6193;SDS011;3130;41.564;23.280;2023-07-29T10:56:27;3.38;;;3.05;;
6193;SDS011;3130;41.564;23.280;2023-07-29T10:58:56;4.03;;;3.22;;
6193;SDS011;3130;41.564;23.280;2023-07-29T11:01:29;3.55;;;3.25;;
6193;SDS011;3130;41.564;23.280;2023-07-29T11:09:53;3.28;;;2.92;;
6193;SDS011;3130;41.564;23.280;2023-07-29T11:12:40;5.25;;;3.22;;
6193;SDS011;3130;41.564;23.280;2023-07-29T11:15:13;3.63;;;2.97;;
6193;SDS011;3130;41.564;23.280;2023-07-29T11:17:43;3.95;;;3.03;;
6193;SDS011;3130;41.564;23.280;2023-07-29T11:20:11;3.60;;;3.13;;
6193;SDS011;3130;41.564;23.280;2023-07-29T11:22:39;3.53;;;3.22;;
6193;SDS011;3130;41.564;23.280;2023-07-29T11:25:08;2.90;;;2.67;;
6193;SDS011;3130;41.564;23.280;2023-07-29T11:27:36;4.63;;;2.72;;
6193;SDS011;3130;41.564;23.280;2023-07-29T11:30:07;3.97;;;3.55;;
6193;SDS011;3130;41.564;23.280;2023-07-29T11:32:36;2.90;;;2.28;;
6193;SDS011;3130;41.564;23.280;2023-07-29T11:35:04;6.47;;;3.33;;
6193;SDS011;3130;41.564;23.280;2023-07-29T11:37:32;4.13;;;3.72;;
6193;SDS011;3130;41.564;23.280;2023-07-29T11:40:00;3.67;;;3.30;;
6193;SDS011;3130;41.564;23.280;2023-07-29T11:42:28;3.47;;;2.75;;
6193;SDS011;3130;41.564;23.280;2023-07-29T11:44:58;3.13;;;2.88;;
6193;SDS011;3130;41.564;23.280;2023-07-29T11:47:27;5.72;;;4.50;;
6193;SDS011;3130;41.564;23.280;2023-07-29T11:49:57;3.13;;;2.83;;
6193;SDS011;3130;41.564;23.280;2023-07-29T11:52:25;4.18;;;2.97;;
6193;SDS011;3130;41.564;23.280;2023-07-29T11:54:54;3.63;;;2.83;;
6193;SDS011;3130;41.564;23.280;2023-07-29T11:57:21;2.65;;;2.45;;
6193;SDS011;3130;41.564;23.280;2023-07-29T11:59:50;3.03;;;2.80;;
6193;SDS011;3130;41.564;23.280;2023-07-29T12:02:17;2.53;;;2.33;;
6193;SDS011;3130;41.564;23.280;2023-07-29T12:04:48;2.80;;;2.28;;
6193;SDS011;3130;41.564;23.280;2023-07-29T12:07:17;2.50;;;2.30;;
6193;SDS011;3130;41.564;23.280;2023-07-29T12:09:45;2.80;;;2.33;;
6193;SDS011;3130;41.564;23.280;2023-07-29T12:12:12;3.50;;;2.55;;
6193;SDS011;3130;41.564;23.280;2023-07-29T12:14:42;2.65;;;2.10;;
6193;SDS011;3130;41.564;23.280;2023-07-29T12:17:10;2.30;;;2.10;;
6193;SDS011;3130;41.564;23.280;2023-07-29T12:19:38;3.47;;;2.60;;
6193;SDS011;3130;41.564;23.280;2023-07-29T12:22:08;2.55;;;2.35;;
6193;SDS011;3130;41.564;23.280;2023-07-29T12:24:37;4.15;;;2.45;;
6193;SDS011;3130;41.564;23.280;2023-07-29T12:27:05;5.90;;;3.30;;
6193;SDS011;3130;41.564;23.280;2023-07-29T12:29:39;3.15;;;2.78;;
6193;SDS011;3130;41.564;23.280;2023-07-29T12:32:08;3.67;;;2.72;;
6193;SDS011;3130;41.564;23.280;2023-07-29T12:34:36;2.95;;;2.45;;
6193;SDS011;3130;41.564;23.280;2023-07-29T12:37:05;3.47;;;2.42;;
6193;SDS011;3130;41.564;23.280;2023-07-29T12:39:35;2.88;;;2.50;;
6193;SDS011;3130;41.564;23.280;2023-07-29T12:42:07;2.88;;;2.55;;
6193;SDS011;3130;41.564;23.280;2023-07-29T12:44:35;3.63;;;2.88;;
6193;SDS011;3130;41.564;23.280;2023-07-29T12:47:04;4.07;;;2.40;;
6193;SDS011;3130;41.564;23.280;2023-07-29T12:49:34;4.53;;;2.60;;
6193;SDS011;3130;41.564;23.280;2023-07-29T12:52:01;5.28;;;2.97;;
6193;SDS011;3130;41.564;23.280;2023-07-29T12:54:31;2.95;;;2.58;;
6193;SDS011;3130;41.564;23.280;2023-07-29T12:57:00;3.20;;;2.47;;
6193;SDS011;3130;41.564;23.280;2023-07-29T12:59:27;3.13;;;2.65;;
6193;SDS011;3130;41.564;23.280;2023-07-29T13:01:54;4.00;;;3.13;;
6193;SDS011;3130;41.564;23.280;2023-07-29T13:04:22;3.47;;;2.75;;
6193;SDS011;3130;41.564;23.280;2023-07-29T13:06:49;2.90;;;2.50;;
6193;SDS011;3130;41.564;23.280;2023-07-29T13:09:16;4.72;;;2.67;;
6193;SDS011;3130;41.564;23.280;2023-07-29T13:11:44;2.88;;;2.30;;
6193;SDS011;3130;41.564;23.280;2023-07-29T13:14:12;3.80;;;2.75;;
6193;SDS011;3130;41.564;23.280;2023-07-29T13:16:39;3.58;;;2.78;;
6193;SDS011;3130;41.564;23.280;2023-07-29T13:19:06;2.90;;;2.63;;
6193;SDS011;3130;41.564;23.280;2023-07-29T13:21:33;4.07;;;3.67;;
6193;SDS011;3130;41.564;23.280;2023-07-29T13:24:00;5.47;;;3.75;;
6193;SDS011;3130;41.564;23.280;2023-07-29T13:26:27;4.75;;;4.00;;
6193;SDS011;3130;41.564;23.280;2023-07-29T13:28:56;3.45;;;2.83;;
6193;SDS011;3130;41.564;23.280;2023-07-29T13:31:23;5.00;;;3.53;;
6193;SDS011;3130;41.564;23.280;2023-07-29T13:33:50;2.97;;;2.67;;
6193;SDS011;3130;41.564;23.280;2023-07-29T13:36:17;3.58;;;3.28;;
6193;SDS011;3130;41.564;23.280;2023-07-29T13:38:45;3.10;;;2.78;;
6193;SDS011;3130;41.564;23.280;2023-07-29T13:41:12;4.18;;;3.13;;
6193;SDS011;3130;41.564;23.280;2023-07-29T13:43:39;3.45;;;3.15;;
6193;SDS011;3130;41.564;23.280;2023-07-29T13:46:09;3.88;;;3.33;;
6193;SDS011;3130;41.564;23.280;2023-07-29T13:48:37;3.72;;;2.30;;
6193;SDS011;3130;41.564;23.280;2023-07-29T13:51:04;2.97;;;2.67;;
6193;SDS011;3130;41.564;23.280;2023-07-29T13:53:31;3.67;;;2.80;;
6193;SDS011;3130;41.564;23.280;2023-07-29T13:55:59;4.50;;;2.80;;
6193;SDS011;3130;41.564;23.280;2023-07-29T13:58:26;3.25;;;2.95;;
6193;SDS011;3130;41.564;23.280;2023-07-29T14:00:53;3.58;;;2.58;;
6193;SDS011;3130;41.564;23.280;2023-07-29T14:03:22;3.42;;;3.08;;
6193;SDS011;3130;41.564;23.280;2023-07-29T14:05:49;3.72;;;3.35;;
6193;SDS011;3130;41.564;23.280;2023-07-29T14:08:16;3.28;;;2.70;;
6193;SDS011;3130;41.564;23.280;2023-07-29T14:10:44;4.05;;;3.65;;
6193;SDS011;3130;41.564;23.280;2023-07-29T14:13:11;3.55;;;3.25;;
6193;SDS011;3130;41.564;23.280;2023-07-29T14:15:38;3.47;;;3.17;;
6193;SDS011;3130;41.564;23.280;2023-07-29T14:18:06;3.53;;;3.13;;
6193;SDS011;3130;41.564;23.280;2023-07-29T14:20:34;4.22;;;3.08;;
6193;SDS011;3130;41.564;23.280;2023-07-29T14:23:02;4.03;;;3.15;;
6193;SDS011;3130;41.564;23.280;2023-07-29T14:25:29;5.85;;;3.35;;
6193;SDS011;3130;41.564;23.280;2023-07-29T14:27:56;3.78;;;3.13;;
6193;SDS011;3130;41.564;23.280;2023-07-29T14:30:23;3.60;;;2.85;;
6193;SDS011;3130;41.564;23.280;2023-07-29T14:32:51;3.25;;;2.70;;
6193;SDS011;3130;41.564;23.280;2023-07-29T14:35:18;5.72;;;2.90;;
6193;SDS011;3130;41.564;23.280;2023-07-29T14:37:47;3.42;;;2.97;;
6193;SDS011;3130;41.564;23.280;2023-07-29T14:40:14;3.10;;;2.70;;
6193;SDS011;3130;41.564;23.280;2023-07-29T14:42:41;4.80;;;3.00;;
6193;SDS011;3130;41.564;23.280;2023-07-29T14:45:09;3.78;;;2.90;;
6193;SDS011;3130;41.564;23.280;2023-07-29T14:47:36;3.00;;;2.80;;
6193;SDS011;3130;41.564;23.280;2023-07-29T14:50:04;4.85;;;3.00;;
6193;SDS011;3130;41.564;23.280;2023-07-29T14:52:32;3.40;;;3.10;;
6193;SDS011;3130;41.564;23.280;2023-07-29T14:55:00;4.13;;;3.50;;
6193;SDS011;3130;41.564;23.280;2023-07-29T14:57:28;3.53;;;3.08;;
6193;SDS011;3130;41.564;23.280;2023-07-29T14:59:55;3.08;;;2.75;;
6193;SDS011;3130;41.564;23.280;2023-07-29T15:02:22;3.65;;;3.25;;
6193;SDS011;3130;41.564;23.280;2023-07-29T15:04:50;4.07;;;2.83;;
6193;SDS011;3130;41.564;23.280;2023-07-29T15:07:18;3.58;;;2.75;;
6193;SDS011;3130;41.564;23.280;2023-07-29T15:09:45;4.18;;;2.83;;
6193;SDS011;3130;41.564;23.280;2023-07-29T15:12:14;3.03;;;2.53;;
6193;SDS011;3130;41.564;23.280;2023-07-29T15:14:42;3.55;;;2.65;;
6193;SDS011;3130;41.564;23.280;2023-07-29T15:17:09;4.55;;;2.97;;